Terminal Aerodrome Forecast
Issued by NWS

Home | Current Version | Previous Version | Text Only | Print | Product List | Glossary Off
Versions: 1 2 3 4 5 6 7 8 9 10 11 12 13 14 15 16 17 18 19 20 21 22 23

239
FTUS43 KLOT 181508 AAA
TAFDPA
TAF AMD
KDPA 181508Z 1815/1912 23014KT 5SM HZ FEW250
     FM181600 23015G23KT P6SM SCT250
     FM190000 23012KT P6SM SKC=

USA.gov is the U.S. government's official web portal to all federal, state and local government web resources and services.